createdAt,value
2022-10-08T00:01:29.316Z,7.60
2022-10-08T00:03:56.913Z,7.57
2022-10-08T00:06:30.110Z,7.97
2022-10-08T00:09:06.178Z,6.90
2022-10-08T00:11:39.649Z,7.97
2022-10-08T00:14:09.174Z,8.43
2022-10-08T00:16:44.194Z,7.60
2022-10-08T00:19:14.855Z,7.75
2022-10-08T00:21:44.589Z,7.53
2022-10-08T00:24:19.274Z,8.25
2022-10-08T00:26:46.553Z,7.50
2022-10-08T00:29:16.970Z,8.05
2022-10-08T00:31:49.678Z,7.38
2022-10-08T00:34:26.015Z,8.07
2022-10-08T00:36:55.168Z,7.47
2022-10-08T00:39:24.480Z,7.80
2022-10-08T00:41:56.783Z,8.23
2022-10-08T00:44:54.745Z,7.60
2022-10-08T00:47:35.951Z,8.15
2022-10-08T00:50:18.324Z,8.57
2022-10-08T00:53:02.167Z,7.60
2022-10-08T00:55:32.850Z,7.80
2022-10-08T00:58:07.783Z,7.13
2022-10-08T01:00:37.253Z,6.63
2022-10-08T01:03:04.366Z,6.95
2022-10-08T01:05:55.353Z,7.80
2022-10-08T01:08:33.998Z,7.53
2022-10-08T01:11:10.718Z,8.98
2022-10-08T01:13:54.748Z,7.70
2022-10-08T01:16:46.944Z,8.18
2022-10-08T01:19:46.771Z,7.10
2022-10-08T01:22:43.848Z,8.15
2022-10-08T01:25:54.779Z,6.93
2022-10-08T01:28:34.908Z,8.43
2022-10-08T01:31:15.581Z,7.82
2022-10-08T01:33:56.897Z,9.13
2022-10-08T01:36:25.092Z,7.45
2022-10-08T01:39:00.706Z,7.75
2022-10-08T01:41:32.787Z,8.13
2022-10-08T01:44:07.432Z,8.50
2022-10-08T01:46:37.510Z,7.53
2022-10-08T01:49:13.451Z,7.00
2022-10-08T01:51:53.621Z,7.43
2022-10-08T01:54:24.644Z,7.65
2022-10-08T01:56:57.149Z,6.47
2022-10-08T01:59:43.032Z,8.23
2022-10-08T02:02:27.439Z,6.82
2022-10-08T02:04:56.039Z,7.38
2022-10-08T02:07:31.078Z,6.90
2022-10-08T02:10:23.561Z,7.18
2022-10-08T02:12:53.168Z,7.97
2022-10-08T02:16:17.362Z,6.70
2022-10-08T02:18:59.196Z,8.38
2022-10-08T02:21:28.599Z,8.23
2022-10-08T02:24:10.350Z,7.03
2022-10-08T02:26:46.342Z,7.85
2022-10-08T02:29:45.029Z,7.70
2022-10-08T02:32:55.188Z,7.47
2022-10-08T02:35:33.289Z,7.28
2022-10-08T02:38:09.349Z,7.40
2022-10-08T02:40:40.208Z,8.10
2022-10-08T02:43:14.579Z,7.88
2022-10-08T02:45:54.561Z,7.60
2022-10-08T02:48:31.392Z,9.25
2022-10-08T02:51:13.526Z,7.32
2022-10-08T02:53:41.819Z,7.70
2022-10-08T02:56:12.937Z,5.65
2022-10-08T02:58:43.817Z,8.32
2022-10-08T03:01:40.567Z,8.10
2022-10-08T03:04:19.013Z,6.95
2022-10-08T03:06:49.072Z,8.50
2022-10-08T03:09:22.996Z,7.30
2022-10-08T03:11:50.715Z,8.30
2022-10-08T03:14:20.629Z,7.88
2022-10-08T03:16:50.549Z,8.15
2022-10-08T03:19:23.636Z,8.20
2022-10-08T03:21:55.015Z,7.13
2022-10-08T03:24:24.485Z,7.40
2022-10-08T03:26:53.475Z,8.20
2022-10-08T03:29:21.049Z,8.23
2022-10-08T03:31:51.564Z,7.97
2022-10-08T03:34:18.549Z,8.60
2022-10-08T03:36:48.510Z,8.82
2022-10-08T03:39:18.192Z,7.93
2022-10-08T03:41:49.765Z,8.88
2022-10-08T03:46:45.773Z,7.45
2022-10-08T03:49:17.708Z,9.32
2022-10-08T03:51:44.703Z,8.40
2022-10-08T03:54:14.154Z,9.10
2022-10-08T03:56:41.093Z,8.93
2022-10-08T03:59:08.012Z,9.25
2022-10-08T04:01:37.386Z,8.43
2022-10-08T04:04:04.542Z,8.50
2022-10-08T04:06:31.536Z,8.77
2022-10-08T04:09:01.208Z,8.75
2022-10-08T04:11:32.124Z,9.05
2022-10-08T04:14:00.638Z,8.95
2022-10-08T04:16:29.960Z,8.82
2022-10-08T04:18:56.963Z,8.07
2022-10-08T04:21:23.938Z,8.02
2022-10-08T04:23:53.148Z,8.45
2022-10-08T04:26:20.206Z,7.75
2022-10-08T04:28:52.303Z,8.50
2022-10-08T04:31:23.871Z,8.75
2022-10-08T04:36:25.839Z,6.85
2022-10-08T04:38:54.851Z,8.80
2022-10-08T04:41:27.155Z,8.73
2022-10-08T04:44:00.216Z,8.60
2022-10-08T04:46:27.683Z,8.45
2022-10-08T04:48:56.562Z,8.43
2022-10-08T04:51:26.645Z,8.32
2022-10-08T04:53:55.631Z,8.85
2022-10-08T04:56:26.551Z,8.95
2022-10-08T04:58:55.271Z,8.90
2022-10-08T05:01:26.402Z,8.88
2022-10-08T05:03:55.842Z,9.35
2022-10-08T05:06:27.082Z,8.50
2022-10-08T05:08:58.218Z,7.90
2022-10-08T05:11:27.092Z,8.38
2022-10-08T05:13:58.037Z,8.30
2022-10-08T05:16:28.671Z,8.85
2022-10-08T05:18:59.078Z,9.30
2022-10-08T05:21:29.907Z,8.18
2022-10-08T05:24:09.063Z,8.95
2022-10-08T05:26:58.054Z,9.15
2022-10-08T05:29:26.035Z,7.55
2022-10-08T05:31:53.046Z,10.05
2022-10-08T05:34:20.167Z,9.73
2022-10-08T05:36:47.097Z,9.32
2022-10-08T05:39:16.656Z,9.23
2022-10-08T05:41:43.884Z,9.15
2022-10-08T05:44:13.583Z,9.18
2022-10-08T05:46:40.946Z,9.05
2022-10-08T05:49:17.873Z,8.95
2022-10-08T05:51:47.284Z,10.05
2022-10-08T05:54:14.960Z,9.48
2022-10-08T05:56:49.283Z,9.70
2022-10-08T05:59:25.656Z,8.73
2022-10-08T06:01:54.976Z,9.80
2022-10-08T06:04:29.941Z,10.65
2022-10-08T06:06:59.563Z,8.65
2022-10-08T06:09:26.543Z,9.88
2022-10-08T06:11:55.763Z,8.63
2022-10-08T06:14:26.237Z,10.25
2022-10-08T06:16:56.373Z,8.70
2022-10-08T06:19:23.500Z,8.45
2022-10-08T06:21:50.444Z,10.07
2022-10-08T06:24:17.648Z,9.75
2022-10-08T06:26:49.631Z,9.27
2022-10-08T06:29:18.335Z,9.07
2022-10-08T06:31:45.973Z,10.40
2022-10-08T06:34:15.437Z,9.65
2022-10-08T06:36:44.903Z,8.65
2022-10-08T06:39:15.053Z,9.43
2022-10-08T06:41:42.715Z,10.10
2022-10-08T06:44:13.720Z,9.45
2022-10-08T06:46:41.677Z,10.40
2022-10-08T06:49:10.577Z,10.10
2022-10-08T06:51:37.723Z,14.13
2022-10-08T06:54:08.628Z,16.70
2022-10-08T06:56:37.564Z,14.68
2022-10-08T06:59:06.166Z,14.80
2022-10-08T07:01:35.149Z,13.60
2022-10-08T07:04:04.341Z,14.55
2022-10-08T07:06:33.629Z,12.65
2022-10-08T07:09:02.600Z,12.38
2022-10-08T07:11:33.449Z,11.70
2022-10-08T07:14:00.609Z,11.75
2022-10-08T07:16:33.358Z,13.52
2022-10-08T07:19:00.539Z,16.25
2022-10-08T07:21:29.168Z,16.08
2022-10-08T07:23:59.200Z,17.45
2022-10-08T07:26:32.446Z,17.23
2022-10-08T07:29:08.649Z,16.92
2022-10-08T07:31:40.247Z,15.00
2022-10-08T07:36:38.163Z,14.30
2022-10-08T07:39:08.619Z,18.40
2022-10-08T07:41:38.902Z,17.73
2022-10-08T07:44:10.548Z,16.02
2022-10-08T07:46:42.613Z,17.63
2022-10-08T07:49:09.824Z,15.80
2022-10-08T07:51:37.173Z,16.55
2022-10-08T07:54:08.420Z,17.05
2022-10-08T07:56:36.381Z,17.65
2022-10-08T07:59:08.277Z,19.08
2022-10-08T08:01:35.840Z,18.85
2022-10-08T08:04:08.918Z,19.08
2022-10-08T08:06:47.407Z,16.02
2022-10-08T08:09:16.742Z,17.45
2022-10-08T08:11:44.122Z,17.27
2022-10-08T08:14:10.990Z,17.02
2022-10-08T08:16:38.534Z,18.63
2022-10-08T08:19:08.200Z,17.63
2022-10-08T08:21:39.731Z,15.75
2022-10-08T08:24:11.287Z,17.38
2022-10-08T08:29:11.212Z,15.10
2022-10-08T08:31:47.027Z,13.18
2022-10-08T08:34:20.735Z,14.20
2022-10-08T08:36:49.717Z,15.77
2022-10-08T08:39:22.961Z,15.25
2022-10-08T08:42:14.184Z,15.88
2022-10-08T08:44:43.299Z,12.13
2022-10-08T08:47:20.506Z,11.63
2022-10-08T08:50:16.170Z,12.27
2022-10-08T08:52:44.112Z,12.05
2022-10-08T08:55:20.139Z,11.05
2022-10-08T08:58:10.006Z,10.23
2022-10-08T09:00:42.907Z,8.70
2022-10-08T09:03:44.328Z,9.50
2022-10-08T09:06:16.190Z,9.50
2022-10-08T09:09:00.969Z,10.90
2022-10-08T09:11:32.404Z,11.77
2022-10-08T09:14:16.575Z,11.85
2022-10-08T09:16:43.569Z,10.80
2022-10-08T09:19:10.443Z,10.30
2022-10-08T09:21:37.435Z,10.25
2022-10-08T09:24:06.985Z,10.15
2022-10-08T09:26:35.604Z,10.23
2022-10-08T09:29:05.151Z,9.13
2022-10-08T09:31:49.127Z,9.32
2022-10-08T09:34:19.989Z,9.13
2022-10-08T09:36:52.785Z,8.10
2022-10-08T09:39:27.018Z,8.05
2022-10-08T09:42:22.302Z,7.78
2022-10-08T09:45:00.612Z,7.32
2022-10-08T09:47:27.753Z,6.38
2022-10-08T09:50:19.720Z,6.78
2022-10-08T09:52:52.886Z,6.38
2022-10-08T09:55:28.403Z,5.38
2022-10-08T09:58:00.454Z,6.43
2022-10-08T10:00:36.583Z,6.15
2022-10-08T10:03:06.916Z,6.55
2022-10-08T10:05:38.764Z,6.63
2022-10-08T10:08:08.719Z,5.57
2022-10-08T10:10:38.918Z,5.72
2022-10-08T10:13:21.377Z,6.07
2022-10-08T10:16:02.719Z,5.60
2022-10-08T10:18:38.958Z,5.45
2022-10-08T10:21:12.291Z,5.43
2022-10-08T10:24:01.844Z,5.43
2022-10-08T10:26:37.178Z,4.03
2022-10-08T10:29:23.708Z,4.25
2022-10-08T10:31:53.873Z,4.47
2022-10-08T10:34:34.286Z,3.90
2022-10-08T10:37:30.016Z,3.60
2022-10-08T10:40:36.441Z,3.63
2022-10-08T10:43:31.293Z,3.58
2022-10-08T10:46:25.477Z,2.80
2022-10-08T10:48:56.531Z,3.67
2022-10-08T10:51:46.559Z,3.55
2022-10-08T10:54:31.359Z,3.08
2022-10-08T10:57:23.807Z,3.33
2022-10-08T11:00:23.869Z,3.65
2022-10-08T11:03:14.134Z,3.20
2022-10-08T11:05:45.265Z,3.40
2022-10-08T11:08:34.903Z,3.13
2022-10-08T11:11:22.734Z,2.85
2022-10-08T11:14:25.405Z,3.38
2022-10-08T11:17:57.721Z,2.80
2022-10-08T11:20:28.852Z,2.72
2022-10-08T11:23:14.329Z,3.08
2022-10-08T11:26:14.003Z,2.72
2022-10-08T11:28:49.080Z,3.05
2022-10-08T11:31:40.837Z,2.58
2022-10-08T11:37:32.552Z,2.53
2022-10-08T11:40:15.336Z,3.00
2022-10-08T11:42:49.373Z,2.65
2022-10-08T11:45:25.957Z,2.70
2022-10-08T11:47:57.947Z,2.65
2022-10-08T11:50:34.926Z,2.70
2022-10-08T11:53:11.026Z,2.42
2022-10-08T11:55:38.736Z,2.45
2022-10-08T11:58:23.701Z,2.45
2022-10-08T12:00:55.600Z,2.70
2022-10-08T12:03:30.335Z,2.58
2022-10-08T12:06:31.153Z,2.55
2022-10-08T12:09:03.880Z,2.60
2022-10-08T12:11:36.089Z,2.75
2022-10-08T12:14:14.653Z,2.50
2022-10-08T12:16:47.488Z,2.75
2022-10-08T12:19:35.957Z,2.30
2022-10-08T12:22:14.559Z,2.30
2022-10-08T12:24:44.811Z,2.40
2022-10-08T12:27:17.528Z,2.72
2022-10-08T12:29:59.759Z,2.88
2022-10-08T12:32:54.376Z,2.40
2022-10-08T12:35:37.302Z,2.20
2022-10-08T12:38:51.117Z,2.28
2022-10-08T12:41:49.986Z,2.47
2022-10-08T12:44:47.786Z,2.05
2022-10-08T12:47:38.025Z,2.17
2022-10-08T12:50:51.563Z,2.45
2022-10-08T12:53:19.034Z,1.98
2022-10-08T12:55:56.751Z,1.85
2022-10-08T12:58:36.751Z,1.98
2022-10-08T13:01:05.675Z,2.00
2022-10-08T13:03:32.611Z,1.90
2022-10-08T13:06:28.304Z,1.85
2022-10-08T13:08:57.442Z,1.88
2022-10-08T13:11:24.602Z,1.73
2022-10-08T13:13:51.508Z,1.80
2022-10-08T13:16:24.909Z,1.95
2022-10-08T13:18:58.793Z,1.67
2022-10-08T13:21:31.736Z,1.60
2022-10-08T13:24:03.329Z,1.90
2022-10-08T13:26:56.683Z,2.05
2022-10-08T13:29:36.815Z,2.20
2022-10-08T13:32:15.697Z,1.80
2022-10-08T13:34:47.916Z,1.70
2022-10-08T13:37:32.418Z,1.52
2022-10-08T13:40:10.707Z,1.80
2022-10-08T13:42:44.469Z,1.88
2022-10-08T13:45:38.297Z,1.65
2022-10-08T13:48:14.100Z,1.65
2022-10-08T13:50:53.291Z,1.50
2022-10-08T13:53:24.646Z,1.60
2022-10-08T13:55:51.976Z,1.42
2022-10-08T13:58:20.666Z,1.50
2022-10-08T14:00:50.682Z,1.70
2022-10-08T14:03:19.829Z,1.65
2022-10-08T14:05:48.458Z,1.38
2022-10-08T14:08:28.675Z,1.50
2022-10-08T14:10:58.420Z,1.63
2022-10-08T14:13:25.644Z,1.65
2022-10-08T14:15:53.011Z,1.23
2022-10-08T14:18:20.191Z,1.38
2022-10-08T14:20:53.190Z,1.23
2022-10-08T14:23:24.667Z,1.67
2022-10-08T14:28:18.660Z,0.95
2022-10-08T14:30:48.041Z,1.30
2022-10-08T14:33:14.870Z,1.40
2022-10-08T14:35:41.771Z,1.48
2022-10-08T14:38:09.291Z,1.35
2022-10-08T14:40:36.314Z,1.65
2022-10-08T14:43:07.785Z,1.10
2022-10-08T14:48:01.748Z,1.00
2022-10-08T14:50:28.564Z,1.40
2022-10-08T14:52:57.576Z,1.30
2022-10-08T14:55:24.447Z,1.42
2022-10-08T14:57:51.332Z,1.40
2022-10-08T15:00:23.180Z,1.60
2022-10-08T15:02:57.441Z,1.17
2022-10-08T15:05:27.013Z,1.70
2022-10-08T15:07:54.079Z,1.42
2022-10-08T15:10:23.216Z,1.50
2022-10-08T15:12:50.391Z,1.27
2022-10-08T15:15:19.860Z,1.38
2022-10-08T15:17:47.526Z,1.60
2022-10-08T15:20:15.472Z,1.40
2022-10-08T15:22:42.388Z,1.33
2022-10-08T15:25:09.597Z,1.30
2022-10-08T15:27:38.787Z,1.50
2022-10-08T15:30:06.749Z,1.08
2022-10-08T15:32:37.181Z,1.30
2022-10-08T15:35:06.490Z,1.30
2022-10-08T15:37:33.398Z,1.35
2022-10-08T15:40:00.253Z,1.60
2022-10-08T15:42:29.405Z,1.42
2022-10-08T15:44:59.401Z,1.35
2022-10-08T15:47:26.304Z,1.40
2022-10-08T15:49:53.337Z,1.30
2022-10-08T15:52:21.952Z,1.35
2022-10-08T15:54:51.365Z,1.48
2022-10-08T15:57:19.149Z,1.17
2022-10-08T15:59:46.231Z,1.35
2022-10-08T16:02:16.960Z,1.25
2022-10-08T16:04:47.286Z,1.30
2022-10-08T16:07:22.103Z,1.65
2022-10-08T16:09:49.512Z,1.42
2022-10-08T16:12:16.340Z,1.40
2022-10-08T16:14:45.364Z,1.50
2022-10-08T16:17:12.277Z,2.03
2022-10-08T16:19:39.205Z,2.00
2022-10-08T16:22:09.151Z,1.98
2022-10-08T16:24:36.097Z,2.50
2022-10-08T16:27:03.027Z,2.53
2022-10-08T16:29:29.942Z,2.97
2022-10-08T16:31:56.859Z,3.00
2022-10-08T16:34:28.470Z,2.72
2022-10-08T16:36:55.364Z,2.40
2022-10-08T16:39:27.793Z,2.35
2022-10-08T16:41:56.903Z,2.60
2022-10-08T16:44:26.272Z,2.42
2022-10-08T16:46:53.626Z,2.05
2022-10-08T16:49:27.212Z,2.05
2022-10-08T16:52:04.545Z,1.60
2022-10-08T16:54:34.108Z,1.27
2022-10-08T16:57:03.715Z,1.25
2022-10-08T16:59:31.088Z,1.25
2022-10-08T17:01:59.612Z,1.30
2022-10-08T17:04:39.060Z,1.50
2022-10-08T17:07:09.576Z,1.08
2022-10-08T17:09:36.952Z,1.10
2022-10-08T17:12:04.021Z,1.30
2022-10-08T17:14:33.030Z,1.05
2022-10-08T17:17:04.887Z,1.40
2022-10-08T17:19:31.902Z,1.40
2022-10-08T17:22:00.945Z,1.20
2022-10-08T17:24:30.165Z,1.48
2022-10-08T17:27:01.763Z,1.42
2022-10-08T17:32:02.605Z,2.00
2022-10-08T17:34:32.905Z,1.85
2022-10-08T17:37:01.862Z,1.70
2022-10-08T17:39:28.795Z,1.73
2022-10-08T17:41:58.158Z,2.10
2022-10-08T17:44:25.048Z,2.60
2022-10-08T17:46:52.134Z,3.28
2022-10-08T17:49:20.858Z,3.33
2022-10-08T17:51:50.767Z,4.03
2022-10-08T17:54:20.568Z,4.25
2022-10-08T17:56:50.175Z,4.50
2022-10-08T17:59:22.781Z,4.00
2022-10-08T18:01:49.866Z,3.75
2022-10-08T18:04:18.916Z,4.68
2022-10-08T18:06:48.804Z,7.95
2022-10-08T18:09:21.166Z,7.32
2022-10-08T18:11:54.368Z,8.40
2022-10-08T18:14:23.495Z,6.47
2022-10-08T18:16:50.844Z,4.03
2022-10-08T18:19:18.571Z,3.72
2022-10-08T18:21:47.980Z,2.67
2022-10-08T18:24:16.517Z,2.20
2022-10-08T18:26:44.619Z,2.53
2022-10-08T18:29:13.771Z,2.67
2022-10-08T18:31:46.430Z,2.70
2022-10-08T18:34:19.804Z,2.78
2022-10-08T18:36:47.364Z,3.90
2022-10-08T18:39:17.741Z,6.07
2022-10-08T18:41:49.544Z,4.97
2022-10-08T18:44:23.819Z,4.85
2022-10-08T18:46:51.631Z,5.22
2022-10-08T18:49:29.034Z,4.78
2022-10-08T18:51:59.438Z,4.63
2022-10-08T18:54:26.508Z,4.57
2022-10-08T18:56:56.689Z,4.00
2022-10-08T18:59:26.400Z,4.32
2022-10-08T19:01:58.373Z,5.38
2022-10-08T19:04:26.385Z,5.47
2022-10-08T19:06:54.135Z,4.10
2022-10-08T19:09:21.589Z,3.53
2022-10-08T19:11:52.904Z,3.08
2022-10-08T19:14:22.189Z,2.90
2022-10-08T19:16:50.008Z,2.90
2022-10-08T19:19:27.957Z,2.95
2022-10-08T19:21:55.374Z,2.90
2022-10-08T19:24:25.372Z,3.13
2022-10-08T19:26:57.240Z,3.20
2022-10-08T19:29:29.553Z,3.53
2022-10-08T19:31:57.088Z,3.58
2022-10-08T19:34:26.539Z,3.38
2022-10-08T19:36:54.498Z,3.92
2022-10-08T19:39:28.253Z,5.20
2022-10-08T19:41:55.396Z,6.18
2022-10-08T19:44:25.735Z,6.10
2022-10-08T19:46:55.227Z,4.18
2022-10-08T19:49:22.534Z,4.70
2022-10-08T19:51:49.518Z,3.25
2022-10-08T19:54:19.121Z,2.75
2022-10-08T19:56:46.047Z,2.67
2022-10-08T19:59:18.374Z,2.25
2022-10-08T20:01:45.336Z,2.10
2022-10-08T20:04:16.686Z,2.70
2022-10-08T20:06:47.294Z,2.42
2022-10-08T20:09:14.865Z,3.03
2022-10-08T20:11:47.526Z,2.35
2022-10-08T20:14:17.969Z,2.97
2022-10-08T20:16:47.067Z,3.60
2022-10-08T20:19:20.102Z,2.90
2022-10-08T20:21:48.934Z,3.10
2022-10-08T20:24:17.470Z,3.00
2022-10-08T20:26:49.048Z,3.80
2022-10-08T20:31:54.109Z,4.30
2022-10-08T20:34:26.973Z,4.68
2022-10-08T20:36:57.980Z,4.22
2022-10-08T20:39:27.507Z,3.85
2022-10-08T20:41:54.643Z,3.80
2022-10-08T20:44:21.694Z,3.95
2022-10-08T20:46:50.716Z,3.20
2022-10-08T20:49:18.937Z,3.03
2022-10-08T20:51:46.094Z,3.38
2022-10-08T20:54:15.913Z,2.78
2022-10-08T20:56:46.418Z,2.83
2022-10-08T20:59:18.331Z,2.25
2022-10-08T21:01:52.140Z,2.50
2022-10-08T21:04:20.800Z,2.33
2022-10-08T21:06:50.192Z,3.15
2022-10-08T21:09:20.148Z,3.42
2022-10-08T21:11:53.689Z,3.55
2022-10-08T21:14:24.747Z,2.83
2022-10-08T21:16:53.454Z,2.65
2022-10-08T21:19:24.131Z,3.30
2022-10-08T21:21:52.145Z,2.97
2022-10-08T21:24:19.124Z,3.30
2022-10-08T21:26:49.025Z,3.40
2022-10-08T21:29:15.955Z,3.15
2022-10-08T21:31:43.156Z,3.25
2022-10-08T21:34:14.902Z,3.28
2022-10-08T21:39:13.780Z,2.58
2022-10-08T21:41:40.689Z,3.70
2022-10-08T21:44:08.786Z,3.17
2022-10-08T21:46:39.280Z,3.38
2022-10-08T21:49:16.805Z,3.08
2022-10-08T21:51:44.295Z,3.72
2022-10-08T21:54:11.813Z,5.25
2022-10-08T21:56:43.816Z,5.05
2022-10-08T21:59:14.375Z,4.50
2022-10-08T22:01:47.799Z,3.88
2022-10-08T22:04:25.925Z,3.50
2022-10-08T22:06:58.304Z,3.20
2022-10-08T22:09:28.247Z,3.75
2022-10-08T22:11:56.895Z,3.15
2022-10-08T22:14:29.996Z,3.10
2022-10-08T22:16:59.759Z,3.03
2022-10-08T22:19:28.903Z,3.25
2022-10-08T22:21:58.292Z,2.88
2022-10-08T22:24:27.437Z,3.20
2022-10-08T22:26:56.391Z,3.28
2022-10-08T22:29:23.231Z,3.88
2022-10-08T22:31:53.680Z,4.25
2022-10-08T22:34:20.674Z,4.07
2022-10-08T22:36:47.564Z,4.22
2022-10-08T22:39:17.231Z,4.70
2022-10-08T22:41:46.619Z,5.07
2022-10-08T22:44:13.464Z,5.20
2022-10-08T22:46:40.777Z,5.85
2022-10-08T22:49:12.439Z,5.50
2022-10-08T22:51:43.910Z,5.43
2022-10-08T22:54:10.776Z,4.88
2022-10-08T22:56:40.329Z,4.97
2022-10-08T22:59:07.168Z,4.47
2022-10-08T23:01:36.274Z,4.68
2022-10-08T23:04:05.612Z,4.30
2022-10-08T23:06:34.669Z,3.92
2022-10-08T23:09:10.302Z,3.45
2022-10-08T23:11:42.283Z,3.50
2022-10-08T23:14:12.406Z,4.20
2022-10-08T23:16:43.973Z,3.95
2022-10-08T23:21:38.738Z,3.30
2022-10-08T23:24:06.512Z,3.33
2022-10-08T23:26:33.410Z,3.35
2022-10-08T23:29:01.038Z,3.55
2022-10-08T23:31:34.779Z,3.40
2022-10-08T23:34:03.753Z,3.50
2022-10-08T23:36:37.041Z,3.65
2022-10-08T23:39:07.972Z,3.28
2022-10-08T23:41:37.102Z,3.20
2022-10-08T23:44:04.228Z,3.30
2022-10-08T23:46:36.565Z,3.13
2022-10-08T23:49:03.676Z,2.88
2022-10-08T23:51:33.654Z,2.92
2022-10-08T23:54:03.217Z,2.70
2022-10-08T23:56:30.538Z,3.13
2022-10-08T23:59:00.952Z,3.03
